Forest Park, Georgia
Current Conditions -  °F | °C
As of 4:52 AM on Thursday 29 Jan 2015 (Local Time) from KATL Reporting Station
Broken Clouds Broken Clouds  
Wind Chill: 36°   Ceiling: 25000
Heat Index: 36°   Visibility: 10mi
Dew Point: 28°   Wind: 0mph
Humidity: 73%   Direction: NA
Pressure: 30.27"   Gusts: NA
Location:  33.62°N, 84.36°W
Report Text: KATL 290952Z 00000KT 10SM SCT200 BKN250 02/M02 A3027 RMK AO2 SLP256 T00221022
Loading
Personal Weather Stations






























Interactive Weather Map New forecast layout! Learn more

10-Day Weather Forecast

Advertisements
Track Severe Weather on mobile